sensor_id;sensor_type;location;lat;lon;timestamp;P1;durP1;ratioP1;P2;durP2;ratioP2
43606;SDS011;29197;44.788;10.366;2023-08-17T00:01:37;7.50;;;6.80;;
43606;SDS011;29197;44.788;10.366;2023-08-17T00:04:26;7.45;;;6.75;;
43606;SDS011;29197;44.788;10.366;2023-08-17T00:07:15;7.85;;;7.15;;
43606;SDS011;29197;44.788;10.366;2023-08-17T00:10:03;7.65;;;6.93;;
43606;SDS011;29197;44.788;10.366;2023-08-17T00:12:52;7.95;;;7.15;;
43606;SDS011;29197;44.788;10.366;2023-08-17T00:15:41;8.40;;;7.00;;
43606;SDS011;29197;44.788;10.366;2023-08-17T00:18:33;7.60;;;6.88;;
43606;SDS011;29197;44.788;10.366;2023-08-17T00:21:21;7.95;;;7.20;;
43606;SDS011;29197;44.788;10.366;2023-08-17T00:24:10;8.75;;;6.32;;
43606;SDS011;29197;44.788;10.366;2023-08-17T00:26:59;8.10;;;7.30;;
43606;SDS011;29197;44.788;10.366;2023-08-17T00:29:47;8.35;;;6.82;;
43606;SDS011;29197;44.788;10.366;2023-08-17T00:32:36;7.70;;;6.90;;
43606;SDS011;29197;44.788;10.366;2023-08-17T00:35:26;8.20;;;7.13;;
43606;SDS011;29197;44.788;10.366;2023-08-17T00:38:15;8.00;;;7.30;;
43606;SDS011;29197;44.788;10.366;2023-08-17T00:41:03;7.45;;;6.70;;
43606;SDS011;29197;44.788;10.366;2023-08-17T00:43:51;7.97;;;7.18;;
43606;SDS011;29197;44.788;10.366;2023-08-17T00:46:40;10.15;;;7.53;;
43606;SDS011;29197;44.788;10.366;2023-08-17T00:49:29;9.93;;;8.93;;
43606;SDS011;29197;44.788;10.366;2023-08-17T00:52:19;8.13;;;7.35;;
43606;SDS011;29197;44.788;10.366;2023-08-17T00:55:08;8.43;;;7.63;;
43606;SDS011;29197;44.788;10.366;2023-08-17T00:57:59;7.47;;;6.78;;
43606;SDS011;29197;44.788;10.366;2023-08-17T01:00:48;8.15;;;7.35;;
43606;SDS011;29197;44.788;10.366;2023-08-17T01:03:36;8.18;;;7.38;;
43606;SDS011;29197;44.788;10.366;2023-08-17T01:06:27;11.50;;;9.15;;
43606;SDS011;29197;44.788;10.366;2023-08-17T01:09:17;8.95;;;8.05;;
43606;SDS011;29197;44.788;10.366;2023-08-17T01:12:07;8.82;;;7.15;;
43606;SDS011;29197;44.788;10.366;2023-08-17T01:15:04;7.60;;;6.90;;
43606;SDS011;29197;44.788;10.366;2023-08-17T01:17:58;8.48;;;7.63;;
43606;SDS011;29197;44.788;10.366;2023-08-17T01:20:52;8.57;;;7.72;;
43606;SDS011;29197;44.788;10.366;2023-08-17T01:23:43;7.75;;;6.97;;
43606;SDS011;29197;44.788;10.366;2023-08-17T01:26:32;7.32;;;6.57;;
43606;SDS011;29197;44.788;10.366;2023-08-17T01:29:21;8.35;;;7.60;;
43606;SDS011;29197;44.788;10.366;2023-08-17T01:32:12;8.27;;;7.10;;
43606;SDS011;29197;44.788;10.366;2023-08-17T01:35:09;9.00;;;6.95;;
43606;SDS011;29197;44.788;10.366;2023-08-17T01:38:12;9.00;;;6.95;;
43606;SDS011;29197;44.788;10.366;2023-08-17T01:41:06;8.55;;;7.75;;
43606;SDS011;29197;44.788;10.366;2023-08-17T01:44:00;8.57;;;7.60;;
43606;SDS011;29197;44.788;10.366;2023-08-17T01:46:48;7.57;;;6.88;;
43606;SDS011;29197;44.788;10.366;2023-08-17T01:49:37;7.93;;;7.13;;
43606;SDS011;29197;44.788;10.366;2023-08-17T01:52:26;9.57;;;6.15;;
43606;SDS011;29197;44.788;10.366;2023-08-17T01:55:16;9.45;;;7.18;;
43606;SDS011;29197;44.788;10.366;2023-08-17T01:58:06;10.32;;;8.10;;
43606;SDS011;29197;44.788;10.366;2023-08-17T02:00:54;10.48;;;9.32;;
43606;SDS011;29197;44.788;10.366;2023-08-17T02:03:43;9.35;;;7.95;;
43606;SDS011;29197;44.788;10.366;2023-08-17T02:06:31;9.45;;;8.50;;
43606;SDS011;29197;44.788;10.366;2023-08-17T02:09:20;11.48;;;7.68;;
43606;SDS011;29197;44.788;10.366;2023-08-17T02:12:12;11.57;;;8.82;;
43606;SDS011;29197;44.788;10.366;2023-08-17T02:15:02;8.07;;;6.90;;
43606;SDS011;29197;44.788;10.366;2023-08-17T02:17:50;8.38;;;7.57;;
43606;SDS011;29197;44.788;10.366;2023-08-17T02:20:39;10.23;;;7.95;;
43606;SDS011;29197;44.788;10.366;2023-08-17T02:23:27;11.38;;;9.80;;
43606;SDS011;29197;44.788;10.366;2023-08-17T02:26:16;12.32;;;10.05;;
43606;SDS011;29197;44.788;10.366;2023-08-17T02:29:04;11.25;;;10.05;;
43606;SDS011;29197;44.788;10.366;2023-08-17T02:31:54;9.57;;;8.60;;
43606;SDS011;29197;44.788;10.366;2023-08-17T02:34:43;11.00;;;8.65;;
43606;SDS011;29197;44.788;10.366;2023-08-17T02:37:31;11.20;;;9.13;;
43606;SDS011;29197;44.788;10.366;2023-08-17T02:40:20;11.10;;;9.20;;
43606;SDS011;29197;44.788;10.366;2023-08-17T02:43:09;10.63;;;8.70;;
43606;SDS011;29197;44.788;10.366;2023-08-17T02:45:57;12.57;;;9.85;;
43606;SDS011;29197;44.788;10.366;2023-08-17T02:48:48;9.02;;;8.13;;
43606;SDS011;29197;44.788;10.366;2023-08-17T02:51:37;10.38;;;8.80;;
43606;SDS011;29197;44.788;10.366;2023-08-17T02:54:26;7.70;;;7.00;;
43606;SDS011;29197;44.788;10.366;2023-08-17T02:57:14;10.32;;;8.32;;
43606;SDS011;29197;44.788;10.366;2023-08-17T03:00:03;10.52;;;7.30;;
43606;SDS011;29197;44.788;10.366;2023-08-17T03:02:52;9.98;;;8.85;;
43606;SDS011;29197;44.788;10.366;2023-08-17T03:05:43;8.45;;;7.05;;
43606;SDS011;29197;44.788;10.366;2023-08-17T03:08:31;17.48;;;10.18;;
43606;SDS011;29197;44.788;10.366;2023-08-17T03:11:20;7.93;;;7.15;;
43606;SDS011;29197;44.788;10.366;2023-08-17T03:14:08;10.52;;;9.40;;
43606;SDS011;29197;44.788;10.366;2023-08-17T03:16:57;11.68;;;8.07;;
43606;SDS011;29197;44.788;10.366;2023-08-17T03:19:45;7.93;;;7.07;;
43606;SDS011;29197;44.788;10.366;2023-08-17T03:22:35;9.10;;;7.65;;
43606;SDS011;29197;44.788;10.366;2023-08-17T03:25:24;7.47;;;6.75;;
43606;SDS011;29197;44.788;10.366;2023-08-17T03:28:12;8.88;;;6.82;;
43606;SDS011;29197;44.788;10.366;2023-08-17T03:31:01;7.80;;;6.63;;
43606;SDS011;29197;44.788;10.366;2023-08-17T03:33:50;7.55;;;6.78;;
43606;SDS011;29197;44.788;10.366;2023-08-17T03:36:39;7.75;;;6.13;;
43606;SDS011;29197;44.788;10.366;2023-08-17T03:39:29;12.60;;;6.80;;
43606;SDS011;29197;44.788;10.366;2023-08-17T03:42:17;7.60;;;6.45;;
43606;SDS011;29197;44.788;10.366;2023-08-17T03:45:06;7.72;;;7.03;;
43606;SDS011;29197;44.788;10.366;2023-08-17T03:47:55;6.90;;;6.20;;
43606;SDS011;29197;44.788;10.366;2023-08-17T03:50:44;7.10;;;6.43;;
43606;SDS011;29197;44.788;10.366;2023-08-17T03:53:32;6.90;;;6.28;;
43606;SDS011;29197;44.788;10.366;2023-08-17T03:56:22;9.27;;;7.53;;
43606;SDS011;29197;44.788;10.366;2023-08-17T03:59:11;8.00;;;7.07;;
43606;SDS011;29197;44.788;10.366;2023-08-17T04:01:59;7.72;;;6.43;;
43606;SDS011;29197;44.788;10.366;2023-08-17T04:04:48;8.82;;;6.57;;
43606;SDS011;29197;44.788;10.366;2023-08-17T04:07:37;7.57;;;6.80;;
43606;SDS011;29197;44.788;10.366;2023-08-17T04:10:25;8.80;;;6.50;;
43606;SDS011;29197;44.788;10.366;2023-08-17T04:13:15;9.77;;;7.15;;
43606;SDS011;29197;44.788;10.366;2023-08-17T04:16:04;7.45;;;6.63;;
43606;SDS011;29197;44.788;10.366;2023-08-17T04:18:52;7.63;;;6.72;;
43606;SDS011;29197;44.788;10.366;2023-08-17T04:21:41;7.63;;;6.60;;
43606;SDS011;29197;44.788;10.366;2023-08-17T04:24:29;10.93;;;6.78;;
43606;SDS011;29197;44.788;10.366;2023-08-17T04:27:18;12.23;;;8.30;;
43606;SDS011;29197;44.788;10.366;2023-08-17T04:30:09;10.00;;;8.45;;
43606;SDS011;29197;44.788;10.366;2023-08-17T04:32:58;11.45;;;8.80;;
43606;SDS011;29197;44.788;10.366;2023-08-17T04:35:46;9.10;;;7.53;;
43606;SDS011;29197;44.788;10.366;2023-08-17T04:38:35;10.40;;;7.65;;
43606;SDS011;29197;44.788;10.366;2023-08-17T04:41:24;9.85;;;8.80;;
43606;SDS011;29197;44.788;10.366;2023-08-17T04:44:12;8.98;;;8.07;;
43606;SDS011;29197;44.788;10.366;2023-08-17T04:47:02;8.90;;;7.90;;
43606;SDS011;29197;44.788;10.366;2023-08-17T04:49:52;8.43;;;7.50;;
43606;SDS011;29197;44.788;10.366;2023-08-17T04:52:40;7.90;;;7.10;;
43606;SDS011;29197;44.788;10.366;2023-08-17T04:55:29;7.95;;;7.15;;
43606;SDS011;29197;44.788;10.366;2023-08-17T04:58:18;8.23;;;7.40;;
43606;SDS011;29197;44.788;10.366;2023-08-17T05:01:07;8.23;;;7.18;;
43606;SDS011;29197;44.788;10.366;2023-08-17T05:03:58;11.27;;;9.20;;
43606;SDS011;29197;44.788;10.366;2023-08-17T05:06:46;8.32;;;7.45;;
43606;SDS011;29197;44.788;10.366;2023-08-17T05:09:35;11.13;;;7.72;;
43606;SDS011;29197;44.788;10.366;2023-08-17T05:12:24;7.93;;;7.10;;
43606;SDS011;29197;44.788;10.366;2023-08-17T05:15:12;8.10;;;7.40;;
43606;SDS011;29197;44.788;10.366;2023-08-17T05:18:01;7.60;;;6.80;;
43606;SDS011;29197;44.788;10.366;2023-08-17T05:20:51;7.60;;;6.88;;
43606;SDS011;29197;44.788;10.366;2023-08-17T05:23:39;9.00;;;8.05;;
43606;SDS011;29197;44.788;10.366;2023-08-17T05:26:28;9.18;;;7.80;;
43606;SDS011;29197;44.788;10.366;2023-08-17T05:29:16;9.13;;;8.20;;
43606;SDS011;29197;44.788;10.366;2023-08-17T05:32:05;9.13;;;7.45;;
43606;SDS011;29197;44.788;10.366;2023-08-17T05:34:54;7.47;;;6.75;;
43606;SDS011;29197;44.788;10.366;2023-08-17T05:37:44;9.68;;;8.68;;
43606;SDS011;29197;44.788;10.366;2023-08-17T05:40:32;11.82;;;8.75;;
43606;SDS011;29197;44.788;10.366;2023-08-17T05:43:21;7.82;;;7.03;;
43606;SDS011;29197;44.788;10.366;2023-08-17T05:46:10;9.93;;;7.72;;
43606;SDS011;29197;44.788;10.366;2023-08-17T05:48:58;8.43;;;7.22;;
43606;SDS011;29197;44.788;10.366;2023-08-17T05:51:48;9.00;;;7.22;;
43606;SDS011;29197;44.788;10.366;2023-08-17T05:54:38;6.57;;;5.90;;
43606;SDS011;29197;44.788;10.366;2023-08-17T05:57:26;7.68;;;6.88;;
43606;SDS011;29197;44.788;10.366;2023-08-17T06:00:15;7.07;;;6.38;;
43606;SDS011;29197;44.788;10.366;2023-08-17T06:03:04;6.85;;;5.97;;
43606;SDS011;29197;44.788;10.366;2023-08-17T06:05:53;9.77;;;6.07;;
43606;SDS011;29197;44.788;10.366;2023-08-17T06:08:42;8.02;;;5.63;;
43606;SDS011;29197;44.788;10.366;2023-08-17T06:11:32;7.95;;;5.32;;
43606;SDS011;29197;44.788;10.366;2023-08-17T06:14:20;5.78;;;4.63;;
43606;SDS011;29197;44.788;10.366;2023-08-17T06:17:09;4.50;;;4.10;;
43606;SDS011;29197;44.788;10.366;2023-08-17T06:19:58;5.97;;;4.75;;
43606;SDS011;29197;44.788;10.366;2023-08-17T06:22:47;5.95;;;5.18;;
43606;SDS011;29197;44.788;10.366;2023-08-17T06:25:36;5.40;;;4.47;;
43606;SDS011;29197;44.788;10.366;2023-08-17T06:28:26;5.20;;;4.25;;
43606;SDS011;29197;44.788;10.366;2023-08-17T06:31:15;4.57;;;4.13;;
43606;SDS011;29197;44.788;10.366;2023-08-17T06:34:04;4.18;;;3.67;;
43606;SDS011;29197;44.788;10.366;2023-08-17T06:37:02;6.90;;;4.10;;
43606;SDS011;29197;44.788;10.366;2023-08-17T06:39:52;7.57;;;4.40;;
43606;SDS011;29197;44.788;10.366;2023-08-17T06:42:40;5.05;;;3.78;;
43606;SDS011;29197;44.788;10.366;2023-08-17T06:45:32;8.27;;;4.35;;
43606;SDS011;29197;44.788;10.366;2023-08-17T06:48:20;4.90;;;3.65;;
43606;SDS011;29197;44.788;10.366;2023-08-17T06:51:09;4.40;;;3.72;;
43606;SDS011;29197;44.788;10.366;2023-08-17T06:53:57;3.50;;;2.75;;
43606;SDS011;29197;44.788;10.366;2023-08-17T06:56:46;4.88;;;3.28;;
43606;SDS011;29197;44.788;10.366;2023-08-17T06:59:35;4.13;;;2.72;;
43606;SDS011;29197;44.788;10.366;2023-08-17T07:02:25;4.72;;;3.00;;
43606;SDS011;29197;44.788;10.366;2023-08-17T07:05:24;3.40;;;2.72;;
43606;SDS011;29197;44.788;10.366;2023-08-17T07:08:13;4.03;;;2.53;;
43606;SDS011;29197;44.788;10.366;2023-08-17T07:11:01;4.47;;;2.80;;
43606;SDS011;29197;44.788;10.366;2023-08-17T07:13:52;3.67;;;2.50;;
43606;SDS011;29197;44.788;10.366;2023-08-17T07:16:40;6.10;;;2.72;;
43606;SDS011;29197;44.788;10.366;2023-08-17T07:19:30;3.58;;;2.20;;
43606;SDS011;29197;44.788;10.366;2023-08-17T07:22:39;4.25;;;2.55;;
43606;SDS011;29197;44.788;10.366;2023-08-17T07:25:27;3.67;;;2.92;;
43606;SDS011;29197;44.788;10.366;2023-08-17T07:28:16;3.08;;;2.55;;
43606;SDS011;29197;44.788;10.366;2023-08-17T07:31:04;2.70;;;2.50;;
43606;SDS011;29197;44.788;10.366;2023-08-17T07:33:53;9.27;;;3.28;;
43606;SDS011;29197;44.788;10.366;2023-08-17T07:36:43;3.00;;;2.55;;
43606;SDS011;29197;44.788;10.366;2023-08-17T07:39:31;2.40;;;2.15;;
43606;SDS011;29197;44.788;10.366;2023-08-17T07:42:20;3.33;;;2.45;;
43606;SDS011;29197;44.788;10.366;2023-08-17T07:45:12;2.40;;;2.20;;
43606;SDS011;29197;44.788;10.366;2023-08-17T07:48:01;2.85;;;2.28;;
43606;SDS011;29197;44.788;10.366;2023-08-17T07:50:50;3.10;;;2.80;;
43606;SDS011;29197;44.788;10.366;2023-08-17T07:53:41;2.30;;;2.10;;
43606;SDS011;29197;44.788;10.366;2023-08-17T07:56:29;9.25;;;3.35;;
43606;SDS011;29197;44.788;10.366;2023-08-17T07:59:18;2.92;;;2.47;;
43606;SDS011;29197;44.788;10.366;2023-08-17T08:02:06;2.60;;;2.40;;
43606;SDS011;29197;44.788;10.366;2023-08-17T08:04:55;3.13;;;2.60;;
43606;SDS011;29197;44.788;10.366;2023-08-17T08:07:44;3.97;;;2.42;;
43606;SDS011;29197;44.788;10.366;2023-08-17T08:10:34;2.50;;;2.30;;
43606;SDS011;29197;44.788;10.366;2023-08-17T08:13:22;2.10;;;2.00;;
43606;SDS011;29197;44.788;10.366;2023-08-17T08:16:11;4.80;;;2.17;;
43606;SDS011;29197;44.788;10.366;2023-08-17T08:18:59;2.70;;;2.08;;
43606;SDS011;29197;44.788;10.366;2023-08-17T08:21:48;5.90;;;2.95;;
43606;SDS011;29197;44.788;10.366;2023-08-17T08:24:36;2.72;;;2.30;;
43606;SDS011;29197;44.788;10.366;2023-08-17T08:27:31;2.92;;;2.65;;
43606;SDS011;29197;44.788;10.366;2023-08-17T08:30:19;2.83;;;2.25;;
43606;SDS011;29197;44.788;10.366;2023-08-17T08:33:08;6.10;;;2.33;;
43606;SDS011;29197;44.788;10.366;2023-08-17T08:35:56;4.88;;;2.50;;
43606;SDS011;29197;44.788;10.366;2023-08-17T08:38:45;3.17;;;2.50;;
43606;SDS011;29197;44.788;10.366;2023-08-17T08:41:34;5.72;;;2.50;;
43606;SDS011;29197;44.788;10.366;2023-08-17T08:44:26;3.22;;;2.70;;
43606;SDS011;29197;44.788;10.366;2023-08-17T08:47:15;3.15;;;2.42;;
43606;SDS011;29197;44.788;10.366;2023-08-17T08:50:05;3.05;;;2.30;;
43606;SDS011;29197;44.788;10.366;2023-08-17T08:52:57;3.58;;;2.25;;
43606;SDS011;29197;44.788;10.366;2023-08-17T08:55:49;3.90;;;2.63;;
43606;SDS011;29197;44.788;10.366;2023-08-17T08:58:43;3.30;;;2.63;;
43606;SDS011;29197;44.788;10.366;2023-08-17T09:01:34;4.47;;;2.65;;
43606;SDS011;29197;44.788;10.366;2023-08-17T09:04:23;2.70;;;2.35;;
43606;SDS011;29197;44.788;10.366;2023-08-17T09:07:12;3.08;;;2.78;;
43606;SDS011;29197;44.788;10.366;2023-08-17T09:10:02;2.92;;;2.30;;
43606;SDS011;29197;44.788;10.366;2023-08-17T09:12:51;3.75;;;2.75;;
43606;SDS011;29197;44.788;10.366;2023-08-17T09:15:40;6.28;;;2.63;;
43606;SDS011;29197;44.788;10.366;2023-08-17T09:18:30;3.40;;;3.08;;
43606;SDS011;29197;44.788;10.366;2023-08-17T09:21:24;3.33;;;2.60;;
43606;SDS011;29197;44.788;10.366;2023-08-17T09:24:13;3.65;;;2.40;;
43606;SDS011;29197;44.788;10.366;2023-08-17T09:27:02;4.05;;;2.67;;
43606;SDS011;29197;44.788;10.366;2023-08-17T09:30:00;2.83;;;2.58;;
43606;SDS011;29197;44.788;10.366;2023-08-17T09:32:50;4.07;;;3.50;;
43606;SDS011;29197;44.788;10.366;2023-08-17T09:35:42;7.22;;;3.20;;
43606;SDS011;29197;44.788;10.366;2023-08-17T09:38:31;4.55;;;3.40;;
43606;SDS011;29197;44.788;10.366;2023-08-17T09:41:20;5.07;;;2.90;;
43606;SDS011;29197;44.788;10.366;2023-08-17T09:44:13;8.77;;;3.13;;
43606;SDS011;29197;44.788;10.366;2023-08-17T09:47:02;3.97;;;2.95;;
43606;SDS011;29197;44.788;10.366;2023-08-17T09:49:53;3.60;;;3.28;;
43606;SDS011;29197;44.788;10.366;2023-08-17T09:52:43;8.13;;;3.30;;
43606;SDS011;29197;44.788;10.366;2023-08-17T09:55:37;6.18;;;3.63;;
43606;SDS011;29197;44.788;10.366;2023-08-17T09:58:27;4.15;;;3.58;;
43606;SDS011;29197;44.788;10.366;2023-08-17T10:01:17;4.57;;;3.15;;
43606;SDS011;29197;44.788;10.366;2023-08-17T10:04:07;3.90;;;3.45;;
43606;SDS011;29197;44.788;10.366;2023-08-17T10:06:59;3.65;;;3.30;;
43606;SDS011;29197;44.788;10.366;2023-08-17T10:09:56;3.83;;;3.45;;
43606;SDS011;29197;44.788;10.366;2023-08-17T10:12:48;4.18;;;3.78;;
43606;SDS011;29197;44.788;10.366;2023-08-17T10:15:43;5.97;;;4.63;;
43606;SDS011;29197;44.788;10.366;2023-08-17T10:18:41;6.78;;;3.95;;
43606;SDS011;29197;44.788;10.366;2023-08-17T10:21:39;3.50;;;3.20;;
43606;SDS011;29197;44.788;10.366;2023-08-17T10:24:31;3.72;;;3.35;;
43606;SDS011;29197;44.788;10.366;2023-08-17T10:27:24;6.82;;;4.88;;
43606;SDS011;29197;44.788;10.366;2023-08-17T10:30:14;4.45;;;4.05;;
43606;SDS011;29197;44.788;10.366;2023-08-17T10:33:03;5.13;;;4.35;;
43606;SDS011;29197;44.788;10.366;2023-08-17T10:35:53;4.10;;;3.78;;
43606;SDS011;29197;44.788;10.366;2023-08-17T10:38:42;5.28;;;4.38;;
43606;SDS011;29197;44.788;10.366;2023-08-17T10:41:31;4.05;;;3.38;;
43606;SDS011;29197;44.788;10.366;2023-08-17T10:44:41;4.32;;;3.90;;
43606;SDS011;29197;44.788;10.366;2023-08-17T10:47:31;4.70;;;3.90;;
43606;SDS011;29197;44.788;10.366;2023-08-17T10:50:23;5.97;;;4.20;;
43606;SDS011;29197;44.788;10.366;2023-08-17T10:53:13;5.38;;;4.57;;
43606;SDS011;29197;44.788;10.366;2023-08-17T10:56:03;4.55;;;3.92;;
43606;SDS011;29197;44.788;10.366;2023-08-17T10:58:58;5.07;;;4.20;;
43606;SDS011;29197;44.788;10.366;2023-08-17T11:01:49;5.07;;;4.53;;
43606;SDS011;29197;44.788;10.366;2023-08-17T11:04:39;8.50;;;4.28;;
43606;SDS011;29197;44.788;10.366;2023-08-17T11:07:33;4.75;;;3.88;;
43606;SDS011;29197;44.788;10.366;2023-08-17T11:10:27;4.60;;;4.20;;
43606;SDS011;29197;44.788;10.366;2023-08-17T11:13:16;5.57;;;4.28;;
43606;SDS011;29197;44.788;10.366;2023-08-17T11:16:05;4.05;;;3.70;;
43606;SDS011;29197;44.788;10.366;2023-08-17T11:18:56;5.28;;;4.75;;
43606;SDS011;29197;44.788;10.366;2023-08-17T11:21:46;5.10;;;4.30;;
43606;SDS011;29197;44.788;10.366;2023-08-17T11:24:35;6.18;;;5.03;;
43606;SDS011;29197;44.788;10.366;2023-08-17T11:27:30;4.65;;;4.22;;
43606;SDS011;29197;44.788;10.366;2023-08-17T11:30:24;5.82;;;4.07;;
43606;SDS011;29197;44.788;10.366;2023-08-17T11:33:14;9.20;;;5.40;;
43606;SDS011;29197;44.788;10.366;2023-08-17T11:36:05;5.53;;;5.03;;
43606;SDS011;29197;44.788;10.366;2023-08-17T11:38:54;6.70;;;4.82;;
43606;SDS011;29197;44.788;10.366;2023-08-17T11:41:43;4.80;;;4.30;;
43606;SDS011;29197;44.788;10.366;2023-08-17T11:44:32;9.80;;;4.85;;
43606;SDS011;29197;44.788;10.366;2023-08-17T11:47:20;4.75;;;4.25;;
43606;SDS011;29197;44.788;10.366;2023-08-17T11:50:10;5.32;;;4.78;;
43606;SDS011;29197;44.788;10.366;2023-08-17T11:53:08;4.45;;;4.10;;
43606;SDS011;29197;44.788;10.366;2023-08-17T11:55:56;5.05;;;4.55;;
43606;SDS011;29197;44.788;10.366;2023-08-17T11:58:49;4.28;;;3.88;;
43606;SDS011;29197;44.788;10.366;2023-08-17T12:01:38;9.00;;;5.65;;
43606;SDS011;29197;44.788;10.366;2023-08-17T12:04:26;6.10;;;4.95;;
43606;SDS011;29197;44.788;10.366;2023-08-17T12:07:15;7.25;;;5.07;;
43606;SDS011;29197;44.788;10.366;2023-08-17T12:10:06;4.88;;;4.38;;
43606;SDS011;29197;44.788;10.366;2023-08-17T12:12:57;5.20;;;4.68;;
43606;SDS011;29197;44.788;10.366;2023-08-17T12:15:46;5.05;;;4.57;;
43606;SDS011;29197;44.788;10.366;2023-08-17T12:18:36;5.85;;;5.22;;
43606;SDS011;29197;44.788;10.366;2023-08-17T12:21:25;5.63;;;5.13;;
43606;SDS011;29197;44.788;10.366;2023-08-17T12:24:15;8.85;;;5.95;;
43606;SDS011;29197;44.788;10.366;2023-08-17T12:27:07;6.55;;;5.50;;
43606;SDS011;29197;44.788;10.366;2023-08-17T12:29:56;8.38;;;5.47;;
43606;SDS011;29197;44.788;10.366;2023-08-17T12:32:45;4.95;;;4.55;;
43606;SDS011;29197;44.788;10.366;2023-08-17T12:35:33;9.80;;;5.75;;
43606;SDS011;29197;44.788;10.366;2023-08-17T12:38:23;7.32;;;5.38;;
43606;SDS011;29197;44.788;10.366;2023-08-17T12:41:12;6.50;;;5.15;;
43606;SDS011;29197;44.788;10.366;2023-08-17T12:44:05;8.82;;;6.03;;
43606;SDS011;29197;44.788;10.366;2023-08-17T12:46:56;5.78;;;5.28;;
43606;SDS011;29197;44.788;10.366;2023-08-17T12:49:44;7.38;;;5.40;;
43606;SDS011;29197;44.788;10.366;2023-08-17T12:52:33;5.30;;;4.50;;
43606;SDS011;29197;44.788;10.366;2023-08-17T12:55:22;8.85;;;5.65;;
43606;SDS011;29197;44.788;10.366;2023-08-17T12:58:10;7.25;;;5.03;;
43606;SDS011;29197;44.788;10.366;2023-08-17T13:01:00;5.25;;;4.70;;
43606;SDS011;29197;44.788;10.366;2023-08-17T13:03:49;6.40;;;5.47;;
43606;SDS011;29197;44.788;10.366;2023-08-17T13:06:37;5.60;;;5.10;;
43606;SDS011;29197;44.788;10.366;2023-08-17T13:09:35;5.25;;;4.75;;
43606;SDS011;29197;44.788;10.366;2023-08-17T13:12:23;5.07;;;4.40;;
43606;SDS011;29197;44.788;10.366;2023-08-17T13:15:12;8.10;;;5.43;;
43606;SDS011;29197;44.788;10.366;2023-08-17T13:18:03;5.80;;;5.20;;
43606;SDS011;29197;44.788;10.366;2023-08-17T13:20:52;6.47;;;5.20;;
43606;SDS011;29197;44.788;10.366;2023-08-17T13:23:40;5.85;;;5.25;;
43606;SDS011;29197;44.788;10.366;2023-08-17T13:26:29;9.05;;;5.20;;
43606;SDS011;29197;44.788;10.366;2023-08-17T13:29:18;6.53;;;5.70;;
43606;SDS011;29197;44.788;10.366;2023-08-17T13:32:06;8.90;;;5.72;;
43606;SDS011;29197;44.788;10.366;2023-08-17T13:34:56;8.05;;;6.03;;
43606;SDS011;29197;44.788;10.366;2023-08-17T13:37:45;6.95;;;5.78;;
43606;SDS011;29197;44.788;10.366;2023-08-17T13:40:38;7.07;;;5.97;;
43606;SDS011;29197;44.788;10.366;2023-08-17T13:43:27;8.13;;;5.85;;
43606;SDS011;29197;44.788;10.366;2023-08-17T13:46:15;5.22;;;4.72;;
43606;SDS011;29197;44.788;10.366;2023-08-17T13:49:04;5.43;;;3.83;;
43606;SDS011;29197;44.788;10.366;2023-08-17T13:51:54;7.22;;;5.13;;
43606;SDS011;29197;44.788;10.366;2023-08-17T13:54:43;6.82;;;5.28;;
43606;SDS011;29197;44.788;10.366;2023-08-17T13:57:32;7.03;;;6.22;;
43606;SDS011;29197;44.788;10.366;2023-08-17T14:00:20;6.35;;;5.60;;
43606;SDS011;29197;44.788;10.366;2023-08-17T14:03:09;6.10;;;5.50;;
43606;SDS011;29197;44.788;10.366;2023-08-17T14:05:58;5.68;;;5.18;;
43606;SDS011;29197;44.788;10.366;2023-08-17T14:08:48;8.32;;;5.53;;
43606;SDS011;29197;44.788;10.366;2023-08-17T14:11:36;7.30;;;5.05;;
43606;SDS011;29197;44.788;10.366;2023-08-17T14:14:25;6.55;;;5.45;;
43606;SDS011;29197;44.788;10.366;2023-08-17T14:17:13;8.07;;;5.43;;
43606;SDS011;29197;44.788;10.366;2023-08-17T14:20:02;5.03;;;4.63;;
43606;SDS011;29197;44.788;10.366;2023-08-17T14:22:52;6.40;;;5.20;;
43606;SDS011;29197;44.788;10.366;2023-08-17T14:25:42;7.43;;;4.47;;
43606;SDS011;29197;44.788;10.366;2023-08-17T14:28:30;6.45;;;5.05;;
43606;SDS011;29197;44.788;10.366;2023-08-17T14:31:19;7.40;;;5.30;;
43606;SDS011;29197;44.788;10.366;2023-08-17T14:34:07;5.47;;;4.60;;
43606;SDS011;29197;44.788;10.366;2023-08-17T14:36:56;6.60;;;5.45;;
43606;SDS011;29197;44.788;10.366;2023-08-17T14:39:45;5.85;;;4.82;;
43606;SDS011;29197;44.788;10.366;2023-08-17T14:42:36;6.32;;;4.82;;
43606;SDS011;29197;44.788;10.366;2023-08-17T14:45:25;4.60;;;3.92;;
43606;SDS011;29197;44.788;10.366;2023-08-17T14:48:13;8.05;;;5.03;;
43606;SDS011;29197;44.788;10.366;2023-08-17T14:51:08;6.57;;;4.88;;
43606;SDS011;29197;44.788;10.366;2023-08-17T14:53:57;5.25;;;4.68;;
43606;SDS011;29197;44.788;10.366;2023-08-17T14:56:45;5.20;;;3.97;;
43606;SDS011;29197;44.788;10.366;2023-08-17T14:59:35;6.47;;;4.90;;
43606;SDS011;29197;44.788;10.366;2023-08-17T15:02:24;6.07;;;4.80;;
43606;SDS011;29197;44.788;10.366;2023-08-17T15:05:14;5.43;;;4.93;;
43606;SDS011;29197;44.788;10.366;2023-08-17T15:08:03;5.30;;;4.72;;
43606;SDS011;29197;44.788;10.366;2023-08-17T15:10:53;7.03;;;4.68;;
43606;SDS011;29197;44.788;10.366;2023-08-17T15:13:41;5.18;;;4.60;;
43606;SDS011;29197;44.788;10.366;2023-08-17T15:16:32;8.15;;;6.18;;
43606;SDS011;29197;44.788;10.366;2023-08-17T15:19:20;8.50;;;5.30;;
43606;SDS011;29197;44.788;10.366;2023-08-17T15:22:25;7.47;;;5.05;;
43606;SDS011;29197;44.788;10.366;2023-08-17T15:25:14;11.40;;;5.72;;
43606;SDS011;29197;44.788;10.366;2023-08-17T15:28:03;7.53;;;5.50;;
43606;SDS011;29197;44.788;10.366;2023-08-17T15:30:59;6.00;;;4.35;;
43606;SDS011;29197;44.788;10.366;2023-08-17T15:33:50;6.55;;;4.75;;
43606;SDS011;29197;44.788;10.366;2023-08-17T15:36:39;5.95;;;4.30;;
43606;SDS011;29197;44.788;10.366;2023-08-17T15:39:27;9.05;;;4.80;;
43606;SDS011;29197;44.788;10.366;2023-08-17T15:42:16;7.13;;;5.30;;
43606;SDS011;29197;44.788;10.366;2023-08-17T15:45:05;5.32;;;4.82;;
43606;SDS011;29197;44.788;10.366;2023-08-17T15:47:54;5.13;;;4.68;;
43606;SDS011;29197;44.788;10.366;2023-08-17T15:50:44;5.50;;;4.38;;
43606;SDS011;29197;44.788;10.366;2023-08-17T15:53:33;5.20;;;4.70;;
43606;SDS011;29197;44.788;10.366;2023-08-17T15:56:25;7.85;;;5.50;;
43606;SDS011;29197;44.788;10.366;2023-08-17T15:59:14;5.45;;;4.82;;
43606;SDS011;29197;44.788;10.366;2023-08-17T16:02:02;4.93;;;4.22;;
43606;SDS011;29197;44.788;10.366;2023-08-17T16:04:51;7.30;;;4.82;;
43606;SDS011;29197;44.788;10.366;2023-08-17T16:07:41;5.78;;;4.55;;
43606;SDS011;29197;44.788;10.366;2023-08-17T16:10:29;5.53;;;4.72;;
43606;SDS011;29197;44.788;10.366;2023-08-17T16:13:21;4.80;;;4.13;;
43606;SDS011;29197;44.788;10.366;2023-08-17T16:16:10;5.78;;;4.63;;
43606;SDS011;29197;44.788;10.366;2023-08-17T16:18:58;6.63;;;4.03;;
43606;SDS011;29197;44.788;10.366;2023-08-17T16:21:50;5.07;;;4.10;;
43606;SDS011;29197;44.788;10.366;2023-08-17T16:24:40;6.68;;;4.22;;
43606;SDS011;29197;44.788;10.366;2023-08-17T16:27:28;4.63;;;3.92;;
43606;SDS011;29197;44.788;10.366;2023-08-17T16:30:17;4.18;;;3.63;;
43606;SDS011;29197;44.788;10.366;2023-08-17T16:33:06;4.63;;;4.22;;
43606;SDS011;29197;44.788;10.366;2023-08-17T16:36:00;4.90;;;4.25;;
43606;SDS011;29197;44.788;10.366;2023-08-17T16:38:49;6.68;;;3.80;;
43606;SDS011;29197;44.788;10.366;2023-08-17T16:41:42;5.32;;;3.53;;
43606;SDS011;29197;44.788;10.366;2023-08-17T16:44:35;5.95;;;4.20;;
43606;SDS011;29197;44.788;10.366;2023-08-17T16:47:24;5.72;;;3.90;;